AirNav   Air Wisconsin Up To $57,000 Bonus
 
 1674 users online  

OK96 Ives Airport
Wellston, Oklahoma, USA

GOING TO WELLSTON?


FAA INFORMATION EFFECTIVE 11 AUGUST 2022

Location

FAA Identifier: OK96
Lat/Long: 35-45-23.2130N 097-05-05.1100W
35-45.386883N 097-05.085167W
35.7564481,-97.0847528
(estimated)
Elevation: 1035 ft. / 315 m (estimated)
Variation: 06E (1985)
From city: 4 miles NW of WELLSTON, OK
Time zone: UTC -5 (UTC -6 during Standard Time)
Zip code: 74881

Airport Operations

Airport use: Private use. Permission required prior to landing
Activation date: 11/1989
Control tower: no
ARTCC: FORT WORTH CENTER
FSS: MC ALESTER FLIGHT SERVICE STATION
Attendance: DAYLIGHT HOURS
Wind indicator: yes
Segmented circle: no

Airport Communications

WX AWOS-3PT at CQB (13 nm E): 119.275 (405-258-6724)
WX ASOS at GOK (17 nm W): 133.975 (405-282-0478)
WX AWOS-3PT at CUH (19 nm NE): 118.25 ((918) 225-6072)

Nearby radio navigation aids

VOR radial/distance  VOR name  Freq  Var
SWOr173/28.1STILLWATER VOR/DME108.4007E
PWAr056/30.5WILEY POST VOR/DME113.4008E
IRWr040/35.0WILL ROGERS VORTAC114.1007E

 
NDB name  Hdg/Dist  Freq  Var  ID
SEMINOLE319/35.327806ESRE ... .-. .

Airport Services

Runway Information

Runway 16/34

Dimensions: 2000 x 40 ft. / 610 x 12 m
Surface: turf
RUNWAY 16  RUNWAY 34
Traffic pattern: leftright
Obstructions: none34 ft. trees, 34 ft. from runway

Airport Ownership and Management from official FAA records

Ownership: Privately-owned
Owner: THOMAS IVES
RT 2 BOX 72AA
WELLSTON, OK 74881
Phone 405-356-2585
Manager: THOMAS IVES
RT 2 BOX 72AA
WELLSTON, OK 74881
Phone 405-356-2585

Airport Operational Statistics

Aircraft based on the field: 2
Single engine airplanes: 2
    

Additional Remarks

FOR CD CTC FORT WORTH ARTCC AT 817-858-7584.

Instrument Procedures

There are no published instrument procedures at OK96.

Some nearby airports with instrument procedures:

KCQB - Chandler Regional Airport (13 nm E)
KGOK - Guthrie/Edmond Regional Airport (17 nm W)
KCUH - Cushing Municipal Airport (19 nm NE)
KSWO - Stillwater Regional Airport (24 nm N)
O47 - Prague Municipal Airport (24 nm SE)
 
Loc | Ops | Rwys | IFR | FBO | Links
Com | Nav | Svcs | Stats | Notes
Area around OK96 (Ives Airport)
 
Road maps at: MapQuest Bing Google
 
Aerial photo
No photo
 
Sectional chart

 
Airport distance calculator
Flying to Ives Airport? Find the distance to fly.

From to OK96

Sunrise and sunset
Times for 17-Aug-2022
 Local
(UTC-5)
 Zulu
(UTC)
Morning civil twilight06:2311:23
Sunrise06:5011:50
Sunset20:1501:15
Evening civil twilight20:4201:42

Current date and time
Zulu (UTC)  17-Aug-2022 21:14:31
Local (UTC-5)  17-Aug-2022 16:14:31
 
METAR
KCQB 
13nm E 
172055Z AUTO 04005KT 10SM OVC015 24/21 A3006 RMK AO2 T02390207 60001
KGOK 
16nm W 
172053Z AUTO 02005KT 10SM OVC018 24/19 A3008 RMK AO2 SLP177 T02390194 56006
KCUH 
19nm NE 
172055Z AUTO 06006KT 10SM OVC015 23/21 A3006 RMK AO2 T02330210
KTIK 
25nm SW 
172055Z AUTO 36010KT 10SM OVC018 25/19 A3003 RMK AO2 SLP164 T02490193 57010
KSWO 
25nm N 
172053Z 03004KT 10SM OVC021 26/19 A3006 RMK AO2 SLP166 T02610194 56012
KSNL 
25nm S 
172055Z AUTO 01007KT 10SM OVC018 25/19 A3005 RMK AO2 T02530190
TAF
KTIK 
25nm SW 
171700Z 1717/1823 01010G15KT 9999 OVC012 QNH2995INS BECMG 1721/1722 02010G15KT 9999 OVC014 QNH3002INS BECMG 1723/1800 04009KT 9999 SCT029 SCT045 BKN060 QNH3001INS BECMG 1811/1812 04009KT 9999 SCT060 SCT250 QNH3004INS TX26/1723Z TN20/1809Z
KSWO 
25nm N 
171720Z 1718/1818 01010KT P6SM OVC014 FM172300 05007KT P6SM BKN040 BKN120 BKN250 FM180500 08004KT P6SM BKN120 BKN250 FM181200 06004KT P6SM BKN250
NOTAMs
Click for the latest NOTAMs
NOTAMs are issued by the DoD/FAA and will open in a separate window not controlled by AirNav.

 

 
 

Would you like to see your business listed on this page?

 If your business provides an interesting product or service to pilots, flight crews, aircraft, or users of the Ives Airport, you should consider listing it here.  To start the listing process, click on the button below
 
Add a business
 

Other Pages about Ives Airport

Update a link
 
Copyright © AirNav, LLC. All rights reserved. Privacy Policy  Contact